createdAt,value
2022-12-11T00:02:06.332Z,99836.19
2022-12-11T00:04:33.241Z,99832.78
2022-12-11T00:07:00.107Z,99834.81
2022-12-11T00:09:27.076Z,99833.25
2022-12-11T00:11:54.121Z,99838.19
2022-12-11T00:14:21.029Z,99822.03
2022-12-11T00:16:49.804Z,99829.34
2022-12-11T00:19:17.174Z,99826.94
2022-12-11T00:21:44.732Z,99834.00
2022-12-11T00:24:11.657Z,99821.13
2022-12-11T00:26:38.942Z,99827.97
2022-12-11T00:29:06.014Z,99825.78
2022-12-11T00:31:32.987Z,99830.69
2022-12-11T00:34:01.847Z,99833.69
2022-12-11T00:36:28.968Z,99824.56
2022-12-11T00:38:55.830Z,99821.44
2022-12-11T00:41:22.930Z,99819.97
2022-12-11T00:43:50.012Z,99818.16
2022-12-11T00:46:17.288Z,99819.50
2022-12-11T00:48:44.190Z,99817.78
2022-12-11T00:51:11.051Z,99818.25
2022-12-11T00:53:39.138Z,99818.97
2022-12-11T00:56:17.999Z,99819.16
2022-12-11T00:58:46.957Z,99814.69
2022-12-11T01:01:17.022Z,99811.13
2022-12-11T01:03:44.422Z,99813.50
2022-12-11T01:06:19.876Z,99811.16
2022-12-11T01:08:47.428Z,99807.38
2022-12-11T01:11:16.252Z,99807.75
2022-12-11T01:13:43.661Z,99810.84
2022-12-11T01:16:16.038Z,99803.44
2022-12-11T01:18:43.296Z,99802.25
2022-12-11T01:21:13.638Z,99799.91
2022-12-11T01:23:40.563Z,99806.38
2022-12-11T01:26:15.137Z,99800.19
2022-12-11T01:28:42.555Z,99795.63
2022-12-11T01:31:10.753Z,99803.28
2022-12-11T01:33:38.343Z,99809.88
2022-12-11T01:36:14.188Z,99808.31
2022-12-11T01:38:41.023Z,99796.97
2022-12-11T01:41:08.058Z,99803.91
2022-12-11T01:43:35.025Z,99801.28
2022-12-11T01:46:01.898Z,99788.94
2022-12-11T01:48:30.828Z,99805.66
2022-12-11T01:51:03.698Z,99803.84
2022-12-11T01:53:34.708Z,99810.88
2022-12-11T01:56:01.449Z,99810.34
2022-12-11T01:58:33.132Z,99814.06
2022-12-11T02:01:00.647Z,99805.84
2022-12-11T02:03:27.524Z,99817.63
2022-12-11T02:05:54.393Z,99814.88
2022-12-11T02:08:21.448Z,99826.88
2022-12-11T02:11:06.372Z,99813.25
2022-12-11T02:13:58.950Z,99819.66
2022-12-11T02:16:46.185Z,99813.88
2022-12-11T02:19:37.702Z,99823.78
2022-12-11T02:22:09.388Z,99823.41
2022-12-11T02:25:18.565Z,99832.91
2022-12-11T02:27:56.666Z,99823.84
2022-12-11T02:30:24.378Z,99825.13
2022-12-11T02:32:55.235Z,99820.28
2022-12-11T02:35:21.970Z,99818.09
2022-12-11T02:37:52.717Z,99819.38
2022-12-11T02:40:23.297Z,99822.13
2022-12-11T02:42:50.915Z,99825.13
2022-12-11T02:45:19.508Z,99823.38
2022-12-11T02:47:48.127Z,99823.28
2022-12-11T02:50:18.971Z,99815.91
2022-12-11T02:52:47.948Z,99814.72
2022-12-11T02:55:15.768Z,99814.06
2022-12-11T02:57:56.149Z,99820.13
2022-12-11T03:00:22.909Z,99824.09
2022-12-11T03:02:49.778Z,99815.53
2022-12-11T03:05:17.104Z,99817.47
2022-12-11T03:07:44.516Z,99820.94
2022-12-11T03:10:14.751Z,99812.78
2022-12-11T03:12:43.818Z,99809.06
2022-12-11T03:15:15.048Z,99812.16
2022-12-11T03:18:06.757Z,99810.53
2022-12-11T03:20:44.562Z,99812.72
2022-12-11T03:23:32.755Z,99818.28
2022-12-11T03:26:02.597Z,99813.66
2022-12-11T03:28:49.532Z,99810.69
2022-12-11T03:31:39.560Z,99804.63
2022-12-11T03:34:13.757Z,99808.81
2022-12-11T03:36:40.914Z,99805.34
2022-12-11T03:39:11.152Z,99800.69
2022-12-11T03:41:40.093Z,99796.91
2022-12-11T03:44:07.480Z,99809.19
2022-12-11T03:46:37.985Z,99803.97
2022-12-11T03:49:19.461Z,99796.72
2022-12-11T03:51:47.606Z,99801.78
2022-12-11T03:54:14.673Z,99802.84
2022-12-11T03:56:43.298Z,99804.03
2022-12-11T03:59:10.451Z,99799.84
2022-12-11T04:01:37.319Z,99800.03
2022-12-11T04:04:04.315Z,99796.31
2022-12-11T04:06:31.238Z,99798.50
2022-12-11T04:08:58.026Z,99795.31
2022-12-11T04:11:37.249Z,99791.97
2022-12-11T04:14:28.467Z,99798.97
2022-12-11T04:16:55.778Z,99798.22
2022-12-11T04:19:43.066Z,99795.78
2022-12-11T04:22:33.679Z,99794.78
2022-12-11T04:25:01.721Z,99793.03
2022-12-11T04:27:47.217Z,99789.13
2022-12-11T04:30:18.257Z,99784.56
2022-12-11T04:32:45.155Z,99775.94
2022-12-11T04:35:12.991Z,99777.53
2022-12-11T04:37:40.019Z,99774.03
2022-12-11T04:40:09.554Z,99777.47
2022-12-11T04:42:36.491Z,99777.38
2022-12-11T04:45:03.939Z,99780.00
2022-12-11T04:47:30.991Z,99775.19
2022-12-11T04:49:57.726Z,99779.47
2022-12-11T04:52:24.527Z,99768.47
2022-12-11T04:54:51.598Z,99775.72
2022-12-11T04:57:18.411Z,99772.72
2022-12-11T04:59:45.139Z,99777.38
2022-12-11T05:02:11.927Z,99773.72
2022-12-11T05:04:38.767Z,99775.03
2022-12-11T05:07:05.689Z,99773.19
2022-12-11T05:09:33.067Z,99776.38
2022-12-11T05:11:59.986Z,99776.03
2022-12-11T05:14:27.630Z,99769.81
2022-12-11T05:16:54.451Z,99769.16
2022-12-11T05:19:21.207Z,99766.19
2022-12-11T05:21:48.018Z,99770.00
2022-12-11T05:24:14.840Z,99766.38
2022-12-11T05:26:41.697Z,99763.44
2022-12-11T05:29:08.714Z,99760.78
2022-12-11T05:31:35.679Z,99750.03
2022-12-11T05:34:02.590Z,99757.50
2022-12-11T05:36:32.186Z,99743.31
2022-12-11T05:38:59.728Z,99748.13
2022-12-11T05:41:28.626Z,99748.66
2022-12-11T05:43:55.540Z,99744.19
2022-12-11T05:46:27.593Z,99746.66
2022-12-11T05:48:56.984Z,99751.66
2022-12-11T05:51:24.176Z,99748.72
2022-12-11T05:53:52.238Z,99736.53
2022-12-11T05:56:30.874Z,99738.34
2022-12-11T05:58:59.060Z,99738.50
2022-12-11T06:01:29.113Z,99735.50
2022-12-11T06:03:57.381Z,99734.16
2022-12-11T06:06:24.871Z,99726.41
2022-12-11T06:08:56.413Z,99728.25
2022-12-11T06:11:24.585Z,99734.69
2022-12-11T06:13:52.512Z,99718.38
2022-12-11T06:16:20.753Z,99718.19
2022-12-11T06:18:47.808Z,99717.03
2022-12-11T06:21:22.932Z,99710.44
2022-12-11T06:23:53.030Z,99706.63
2022-12-11T06:26:20.800Z,99710.28
2022-12-11T06:28:48.057Z,99718.97
2022-12-11T06:31:15.668Z,99714.72
2022-12-11T06:33:43.131Z,99704.16
2022-12-11T06:36:12.835Z,99706.13
2022-12-11T06:38:40.144Z,99707.47
2022-12-11T06:41:08.509Z,99703.66
2022-12-11T06:43:37.342Z,99710.59
2022-12-11T06:46:15.951Z,99708.63
2022-12-11T06:48:43.567Z,99699.84
2022-12-11T06:51:13.121Z,99703.13
2022-12-11T06:53:40.405Z,99697.84
2022-12-11T06:56:15.778Z,99704.94
2022-12-11T06:58:44.072Z,99696.66
2022-12-11T07:01:17.218Z,99700.09
2022-12-11T07:03:44.394Z,99698.13
2022-12-11T07:06:12.552Z,99704.75
2022-12-11T07:08:42.752Z,99707.03
2022-12-11T07:11:14.513Z,99709.22
2022-12-11T07:13:44.761Z,99726.66
2022-12-11T07:16:13.212Z,99721.25
2022-12-11T07:18:41.519Z,99714.06
2022-12-11T07:21:10.441Z,99719.16
2022-12-11T07:23:40.258Z,99719.03
2022-12-11T07:26:12.808Z,99722.84
2022-12-11T07:28:40.416Z,99712.63
2022-12-11T07:31:15.271Z,99712.47
2022-12-11T07:33:42.889Z,99716.44
2022-12-11T07:36:11.703Z,99716.69
2022-12-11T07:38:38.962Z,99713.09
2022-12-11T07:41:08.632Z,99715.84
2022-12-11T07:43:35.828Z,99720.25
2022-12-11T07:46:08.082Z,99710.94
2022-12-11T07:48:37.566Z,99714.03
2022-12-11T07:51:27.908Z,99726.53
2022-12-11T07:53:59.185Z,99711.41
2022-12-11T07:56:27.010Z,99707.75
2022-12-11T07:58:54.369Z,99715.44
2022-12-11T08:01:23.738Z,99711.09
2022-12-11T08:03:50.937Z,99716.97
2022-12-11T08:06:18.457Z,99702.00
2022-12-11T08:08:45.572Z,99701.69
2022-12-11T08:11:14.289Z,99706.47
2022-12-11T08:13:42.255Z,99691.97
2022-12-11T08:16:13.102Z,99684.72
2022-12-11T08:18:41.433Z,99678.91
2022-12-11T08:21:10.364Z,99678.78
2022-12-11T08:23:37.269Z,99676.44
2022-12-11T08:26:05.643Z,99680.22
2022-12-11T08:28:32.932Z,99679.25
2022-12-11T08:31:00.026Z,99678.09
2022-12-11T08:33:26.908Z,99683.53
2022-12-11T08:35:53.645Z,99683.53
2022-12-11T08:38:25.215Z,99680.72
2022-12-11T08:40:52.513Z,99678.41
2022-12-11T08:43:19.339Z,99674.31
2022-12-11T08:45:46.782Z,99681.25
2022-12-11T08:48:14.604Z,99679.91
2022-12-11T08:50:41.483Z,99687.00
2022-12-11T08:53:08.330Z,99686.06
2022-12-11T08:55:35.313Z,99693.81
2022-12-11T08:58:02.238Z,99683.59
2022-12-11T09:00:29.044Z,99685.75
2022-12-11T09:02:55.908Z,99675.50
2022-12-11T09:05:22.965Z,99683.44
2022-12-11T09:07:49.756Z,99683.44
2022-12-11T09:10:18.655Z,99680.31
2022-12-11T09:12:45.561Z,99683.59
2022-12-11T09:15:12.939Z,99679.16
2022-12-11T09:17:40.022Z,99683.94
2022-12-11T09:20:07.492Z,99671.22
2022-12-11T09:22:34.434Z,99680.50
2022-12-11T09:25:01.313Z,99681.78
2022-12-11T09:27:29.313Z,99683.44
2022-12-11T09:29:56.161Z,99684.75
2022-12-11T09:32:23.088Z,99681.28
2022-12-11T09:34:51.225Z,99682.78
2022-12-11T09:37:18.039Z,99672.56
2022-12-11T09:39:44.876Z,99676.22
2022-12-11T09:42:29.951Z,99677.53
2022-12-11T09:45:02.428Z,99680.78
2022-12-11T09:47:35.520Z,99683.34
2022-12-11T09:50:14.184Z,99672.66
2022-12-11T09:52:54.594Z,99678.19
2022-12-11T09:55:27.446Z,99674.53
2022-12-11T09:58:00.139Z,99671.59
2022-12-11T10:00:53.485Z,99675.00
2022-12-11T10:03:20.399Z,99673.00
2022-12-11T10:06:04.901Z,99671.44
2022-12-11T10:08:38.354Z,99669.03
2022-12-11T10:11:34.885Z,99681.22
2022-12-11T10:14:23.043Z,99668.44
2022-12-11T10:16:55.119Z,99666.59
2022-12-11T10:19:30.416Z,99663.31
2022-12-11T10:22:00.761Z,99662.28
2022-12-11T10:27:37.924Z,99663.94
2022-12-11T10:30:07.326Z,99658.75
2022-12-11T10:33:06.215Z,99651.94
2022-12-11T10:35:39.965Z,99654.47
2022-12-11T10:38:16.236Z,99645.03
2022-12-11T10:40:56.122Z,99650.38
2022-12-11T10:43:36.343Z,99643.63
2022-12-11T10:46:04.612Z,99636.38
2022-12-11T10:48:53.703Z,99631.00
2022-12-11T10:51:40.799Z,99636.78
2022-12-11T10:54:20.805Z,99633.31
2022-12-11T10:56:51.806Z,99636.88
2022-12-11T10:59:33.342Z,99626.13
2022-12-11T11:02:00.508Z,99630.34
2022-12-11T11:04:36.405Z,99628.25
2022-12-11T11:07:24.290Z,99625.47
2022-12-11T11:10:03.084Z,99627.28
2022-12-11T11:12:29.974Z,99625.81
2022-12-11T11:15:11.859Z,99617.41
2022-12-11T11:17:54.476Z,99620.06
2022-12-11T11:20:30.582Z,99617.91
2022-12-11T11:23:00.000Z,99614.59
2022-12-11T11:25:28.460Z,99618.56
2022-12-11T11:27:58.505Z,99619.19
2022-12-11T11:30:36.483Z,99608.09
2022-12-11T11:33:24.778Z,99601.91
2022-12-11T11:35:53.286Z,99611.31
2022-12-11T11:38:23.222Z,99597.88
2022-12-11T11:41:00.738Z,99601.44
2022-12-11T11:43:48.014Z,99599.19
2022-12-11T11:46:30.143Z,99589.88
2022-12-11T11:49:24.706Z,99603.97
2022-12-11T11:51:59.387Z,99596.63
2022-12-11T11:54:35.969Z,99582.06
2022-12-11T11:57:25.568Z,99588.94
2022-12-11T12:00:09.891Z,99581.22
2022-12-11T12:02:43.567Z,99584.19
2022-12-11T12:05:13.966Z,99584.59
2022-12-11T12:07:43.894Z,99587.25
2022-12-11T12:10:32.163Z,99577.97
2022-12-11T12:13:49.210Z,99573.22
2022-12-11T12:16:53.665Z,99562.34
2022-12-11T12:20:10.912Z,99561.78
2022-12-11T12:23:15.078Z,99552.44
2022-12-11T12:25:52.934Z,99550.44
2022-12-11T12:28:55.152Z,99552.22
2022-12-11T12:31:31.191Z,99548.50
2022-12-11T12:34:36.425Z,99555.69
2022-12-11T12:37:24.234Z,99548.06
2022-12-11T12:40:09.287Z,99543.75
2022-12-11T12:42:42.059Z,99545.44
2022-12-11T12:45:18.553Z,99546.94
2022-12-11T12:47:53.063Z,99539.97
2022-12-11T12:50:23.196Z,99534.25
2022-12-11T12:52:51.473Z,99535.88
2022-12-11T12:55:29.099Z,99536.94
2022-12-11T12:58:01.563Z,99528.31
2022-12-11T13:00:37.528Z,99533.84
2022-12-11T13:03:22.642Z,99530.59
2022-12-11T13:06:03.655Z,99533.25
2022-12-11T13:08:47.467Z,99527.31
2022-12-11T13:11:19.212Z,99521.50
2022-12-11T13:14:01.563Z,99521.66
2022-12-11T13:16:38.066Z,99518.59
2022-12-11T13:19:42.308Z,99516.28
2022-12-11T13:22:15.444Z,99516.78
2022-12-11T13:25:02.710Z,99506.81
2022-12-11T13:27:32.465Z,99512.91
2022-12-11T13:30:06.580Z,99507.75
2022-12-11T13:32:33.674Z,99503.19
2022-12-11T13:35:04.901Z,99503.63
2022-12-11T13:37:43.274Z,99503.06
2022-12-11T13:40:20.225Z,99508.19
2022-12-11T13:42:59.551Z,99511.03
2022-12-11T13:45:39.888Z,99504.97
2022-12-11T13:48:23.664Z,99505.22
2022-12-11T13:50:52.086Z,99502.94
2022-12-11T13:53:19.727Z,99501.53
2022-12-11T13:55:47.670Z,99496.81
2022-12-11T13:58:22.983Z,99499.53
2022-12-11T14:01:10.974Z,99500.97
2022-12-11T14:03:52.977Z,99507.50
2022-12-11T14:06:19.972Z,99495.16
2022-12-11T14:08:50.947Z,99490.66
2022-12-11T14:11:27.903Z,99499.81
2022-12-11T14:13:56.789Z,99492.97
2022-12-11T14:16:24.540Z,99491.63
2022-12-11T14:18:52.185Z,99499.59
2022-12-11T14:21:24.718Z,99494.19
2022-12-11T14:24:03.655Z,99491.50
2022-12-11T14:26:32.724Z,99491.09
2022-12-11T14:28:59.719Z,99489.47
2022-12-11T14:31:35.760Z,99495.81
2022-12-11T14:34:06.954Z,99491.78
2022-12-11T14:36:35.472Z,99492.81
2022-12-11T14:39:07.666Z,99490.25
2022-12-11T14:41:42.712Z,99488.34
2022-12-11T14:44:15.496Z,99493.38
2022-12-11T14:46:52.673Z,99496.84
2022-12-11T14:49:27.732Z,99488.53
2022-12-11T14:51:56.392Z,99488.25
2022-12-11T14:54:39.120Z,99484.34
2022-12-11T14:57:07.235Z,99482.34
2022-12-11T14:59:44.946Z,99479.50
2022-12-11T15:02:23.165Z,99485.38
2022-12-11T15:05:23.019Z,99490.28
2022-12-11T15:08:03.383Z,99486.09
2022-12-11T15:11:00.115Z,99494.50
2022-12-11T15:13:27.275Z,99495.03
2022-12-11T15:15:55.106Z,99490.31
2022-12-11T15:18:23.731Z,99489.00
2022-12-11T15:20:52.724Z,99488.69
2022-12-11T15:23:20.034Z,99485.97
2022-12-11T15:25:55.315Z,99497.47
2022-12-11T15:28:35.367Z,99492.25
2022-12-11T15:31:05.300Z,99488.72
2022-12-11T15:33:34.688Z,99489.16
2022-12-11T15:36:24.916Z,99488.72
2022-12-11T15:38:51.868Z,99484.34
2022-12-11T15:41:26.364Z,99485.44
2022-12-11T15:43:58.601Z,99487.34
2022-12-11T15:46:26.266Z,99485.81
2022-12-11T15:48:53.567Z,99483.06
2022-12-11T15:51:20.433Z,99486.78
2022-12-11T15:53:47.231Z,99479.88
2022-12-11T15:56:15.967Z,99485.50
2022-12-11T15:58:47.350Z,99484.31
2022-12-11T16:01:14.360Z,99488.97
2022-12-11T16:03:41.155Z,99491.88
2022-12-11T16:06:11.971Z,99484.38
2022-12-11T16:08:38.769Z,99483.81
2022-12-11T16:11:05.727Z,99484.00
2022-12-11T16:13:32.523Z,99489.91
2022-12-11T16:15:59.321Z,99489.78
2022-12-11T16:18:26.891Z,99491.25
2022-12-11T16:20:53.761Z,99481.63
2022-12-11T16:23:21.048Z,99487.84
2022-12-11T16:25:48.531Z,99487.16
2022-12-11T16:28:18.248Z,99481.22
2022-12-11T16:30:45.740Z,99476.91
2022-12-11T16:33:13.637Z,99483.88
2022-12-11T16:35:42.675Z,99491.66
2022-12-11T16:38:10.617Z,99484.34
2022-12-11T16:40:38.102Z,99478.56
2022-12-11T16:43:05.450Z,99478.97
2022-12-11T16:45:32.659Z,99475.31
2022-12-11T16:48:03.132Z,99472.22
2022-12-11T16:50:30.023Z,99476.38
2022-12-11T16:52:57.267Z,99471.78
2022-12-11T16:55:24.121Z,99470.69
2022-12-11T16:57:50.853Z,99476.38
2022-12-11T17:00:17.973Z,99477.91
2022-12-11T17:02:44.819Z,99469.63
2022-12-11T17:05:11.898Z,99472.50
2022-12-11T17:07:40.518Z,99475.03
2022-12-11T17:10:07.924Z,99477.41
2022-12-11T17:12:34.715Z,99469.94
2022-12-11T17:15:01.612Z,99472.63
2022-12-11T17:17:28.372Z,99478.81
2022-12-11T17:19:55.847Z,99466.63
2022-12-11T17:22:22.735Z,99467.38
2022-12-11T17:24:49.896Z,99466.09
2022-12-11T17:27:17.026Z,99477.91
2022-12-11T17:29:44.187Z,99470.19
2022-12-11T17:32:11.087Z,99466.63
2022-12-11T17:34:38.768Z,99457.34
2022-12-11T17:37:06.280Z,99461.63
2022-12-11T17:39:33.499Z,99468.97
2022-12-11T17:42:01.037Z,99462.94
2022-12-11T17:44:30.706Z,99465.91
2022-12-11T17:46:58.496Z,99463.72
2022-12-11T17:49:25.408Z,99462.34
2022-12-11T17:51:53.333Z,99461.56
2022-12-11T17:54:20.340Z,99463.28
2022-12-11T17:56:47.254Z,99460.34
2022-12-11T17:59:14.164Z,99465.91
2022-12-11T18:01:41.090Z,99463.88
2022-12-11T18:04:07.987Z,99467.84
2022-12-11T18:06:35.048Z,99467.25
2022-12-11T18:09:02.041Z,99468.53
2022-12-11T18:11:28.947Z,99462.72
2022-12-11T18:13:55.881Z,99473.38
2022-12-11T18:16:32.715Z,99465.53
2022-12-11T18:18:59.759Z,99482.47
2022-12-11T18:21:29.718Z,99469.91
2022-12-11T18:23:57.080Z,99475.91
2022-12-11T18:26:24.671Z,99474.63
2022-12-11T18:28:53.020Z,99479.03
2022-12-11T18:31:21.004Z,99471.53
2022-12-11T18:33:48.240Z,99477.09
2022-12-11T18:36:16.686Z,99472.19
2022-12-11T18:38:43.609Z,99465.78
2022-12-11T18:41:12.274Z,99455.91
2022-12-11T18:43:40.754Z,99462.28
2022-12-11T18:46:09.896Z,99468.56
2022-12-11T18:48:36.920Z,99465.25
2022-12-11T18:51:08.358Z,99460.91
2022-12-11T18:53:36.229Z,99464.16
2022-12-11T18:56:10.322Z,99458.41
2022-12-11T18:58:37.558Z,99459.56
2022-12-11T19:01:08.470Z,99452.72
2022-12-11T19:03:36.462Z,99456.13
2022-12-11T19:06:12.129Z,99455.53
2022-12-11T19:08:39.704Z,99445.53
2022-12-11T19:11:07.163Z,99456.00
2022-12-11T19:13:34.374Z,99448.34
2022-12-11T19:16:01.803Z,99450.44
2022-12-11T19:18:28.719Z,99447.69
2022-12-11T19:21:06.423Z,99442.25
2022-12-11T19:23:35.286Z,99443.94
2022-12-11T19:26:02.474Z,99447.59
2022-12-11T19:28:29.504Z,99451.22
2022-12-11T19:30:56.346Z,99448.94
2022-12-11T19:33:23.130Z,99452.44
2022-12-11T19:35:50.081Z,99451.56
2022-12-11T19:38:17.087Z,99456.41
2022-12-11T19:40:44.530Z,99449.19
2022-12-11T19:43:11.875Z,99453.59
2022-12-11T19:45:39.118Z,99452.59
2022-12-11T19:48:06.188Z,99455.88
2022-12-11T19:50:35.762Z,99448.44
2022-12-11T19:53:03.024Z,99449.50
2022-12-11T19:55:29.905Z,99441.28
2022-12-11T19:57:56.730Z,99447.88
2022-12-11T20:00:24.680Z,99451.31
2022-12-11T20:02:51.855Z,99454.75
2022-12-11T20:05:18.735Z,99447.31
2022-12-11T20:07:45.860Z,99439.81
2022-12-11T20:10:12.996Z,99450.66
2022-12-11T20:12:39.915Z,99450.31
2022-12-11T20:15:07.103Z,99450.50
2022-12-11T20:17:33.949Z,99450.16
2022-12-11T20:20:00.808Z,99453.28
2022-12-11T20:22:27.582Z,99444.25
2022-12-11T20:24:54.405Z,99449.19
2022-12-11T20:27:21.266Z,99450.19
2022-12-11T20:29:48.169Z,99454.78
2022-12-11T20:32:14.992Z,99454.28
2022-12-11T20:34:41.956Z,99446.75
2022-12-11T20:37:08.836Z,99447.56
2022-12-11T20:39:36.708Z,99447.22
2022-12-11T20:42:05.050Z,99450.34
2022-12-11T20:44:32.152Z,99449.03
2022-12-11T20:46:59.065Z,99447.41
2022-12-11T20:49:27.561Z,99446.56
2022-12-11T20:51:55.555Z,99447.38
2022-12-11T20:54:22.305Z,99450.19
2022-12-11T20:56:50.770Z,99448.69
2022-12-11T20:59:18.101Z,99453.28
2022-12-11T21:01:45.135Z,99449.19
2022-12-11T21:04:12.081Z,99459.06
2022-12-11T21:06:40.664Z,99455.44
2022-12-11T21:09:19.001Z,99456.44
2022-12-11T21:11:45.959Z,99458.41
2022-12-11T21:14:13.457Z,99459.22
2022-12-11T21:16:40.723Z,99458.59
2022-12-11T21:19:10.209Z,99462.69
2022-12-11T21:21:40.698Z,99474.69
2022-12-11T21:24:09.128Z,99469.91
2022-12-11T21:26:36.224Z,99479.78
2022-12-11T21:29:03.148Z,99470.25
2022-12-11T21:31:31.312Z,99469.56
2022-12-11T21:33:58.822Z,99478.88
2022-12-11T21:36:25.632Z,99466.72
2022-12-11T21:38:52.845Z,99471.53
2022-12-11T21:41:22.493Z,99474.84
2022-12-11T21:46:38.750Z,99476.84
2022-12-11T21:49:06.061Z,99477.81
2022-12-11T21:51:37.992Z,99468.88
2022-12-11T21:54:07.659Z,99466.78
2022-12-11T21:56:34.483Z,99470.75
2022-12-11T21:59:01.948Z,99475.00
2022-12-11T22:01:32.061Z,99481.88
2022-12-11T22:03:59.389Z,99479.09
2022-12-11T22:06:26.171Z,99480.88
2022-12-11T22:08:53.349Z,99477.91
2022-12-11T22:11:22.432Z,99477.75
2022-12-11T22:13:49.448Z,99483.78
2022-12-11T22:16:17.205Z,99476.94
2022-12-11T22:18:44.132Z,99477.22
2022-12-11T22:21:11.024Z,99481.00
2022-12-11T22:23:39.429Z,99478.41
2022-12-11T22:26:07.703Z,99479.88
2022-12-11T22:28:34.749Z,99477.44
2022-12-11T22:31:01.885Z,99482.72
2022-12-11T22:33:28.858Z,99495.91
2022-12-11T22:35:57.250Z,99491.91
2022-12-11T22:38:24.574Z,99490.13
2022-12-11T22:40:51.907Z,99494.97
2022-12-11T22:43:18.869Z,99494.88
2022-12-11T22:45:45.915Z,99500.00
2022-12-11T22:48:12.864Z,99496.38
2022-12-11T22:50:40.893Z,99496.56
2022-12-11T22:53:07.849Z,99492.41
2022-12-11T22:55:38.433Z,99503.56
2022-12-11T22:58:05.255Z,99500.66
2022-12-11T23:00:32.103Z,99499.81
2022-12-11T23:02:59.058Z,99502.78
2022-12-11T23:05:25.952Z,99495.78
2022-12-11T23:07:53.060Z,99502.72
2022-12-11T23:10:20.055Z,99494.03
2022-12-11T23:12:46.938Z,99502.59
2022-12-11T23:15:14.207Z,99492.06
2022-12-11T23:17:41.198Z,99491.72
2022-12-11T23:20:08.501Z,99494.66
2022-12-11T23:22:35.382Z,99494.72
2022-12-11T23:25:02.306Z,99484.84
2022-12-11T23:27:29.399Z,99494.84
2022-12-11T23:29:56.503Z,99497.31
2022-12-11T23:32:23.309Z,99499.25
2022-12-11T23:34:50.246Z,99496.94
2022-12-11T23:37:17.079Z,99490.69
2022-12-11T23:39:43.869Z,99494.31
2022-12-11T23:42:10.740Z,99493.97
2022-12-11T23:44:37.633Z,99490.19
2022-12-11T23:47:04.447Z,99494.31
2022-12-11T23:49:31.280Z,99492.16
2022-12-11T23:51:58.049Z,99491.13
2022-12-11T23:54:24.876Z,99490.16
2022-12-11T23:56:51.659Z,99482.69
2022-12-11T23:59:18.421Z,99486.41
